createdAt,value
2023-01-09T00:02:57.224Z,28.52
2023-01-09T00:05:59.697Z,23.15
2023-01-09T00:09:02.356Z,26.40
2023-01-09T00:12:05.027Z,22.10
2023-01-09T00:15:08.207Z,22.50
2023-01-09T00:18:10.933Z,24.63
2023-01-09T00:21:14.400Z,27.88
2023-01-09T00:24:17.009Z,28.25
2023-01-09T00:27:19.521Z,24.67
2023-01-09T00:30:21.993Z,22.20
2023-01-09T00:33:42.945Z,21.58
2023-01-09T00:36:45.347Z,21.42
2023-01-09T00:39:48.214Z,22.43
2023-01-09T00:42:55.941Z,20.27
2023-01-09T00:46:00.086Z,16.95
2023-01-09T00:49:04.584Z,16.90
2023-01-09T00:52:09.929Z,15.02
2023-01-09T00:55:14.225Z,16.23
2023-01-09T00:58:17.013Z,16.40
2023-01-09T01:01:19.607Z,18.80
2023-01-09T01:04:40.522Z,14.40
2023-01-09T01:07:43.426Z,23.02
2023-01-09T01:10:49.003Z,16.73
2023-01-09T01:13:51.965Z,18.33
2023-01-09T01:16:54.484Z,18.17
2023-01-09T01:19:57.228Z,16.50
2023-01-09T01:22:59.839Z,15.57
2023-01-09T01:26:11.328Z,14.63
2023-01-09T01:29:14.234Z,17.17
2023-01-09T01:32:16.796Z,16.70
2023-01-09T01:35:19.300Z,17.52
2023-01-09T01:38:21.967Z,18.60
2023-01-09T01:41:31.083Z,19.27
2023-01-09T01:45:01.341Z,13.67
2023-01-09T01:48:09.608Z,14.60
2023-01-09T01:51:15.680Z,14.60
2023-01-09T01:54:24.655Z,15.40
2023-01-09T01:57:27.145Z,14.33
2023-01-09T02:00:37.124Z,15.23
2023-01-09T02:03:42.250Z,13.68
2023-01-09T02:06:47.236Z,14.88
2023-01-09T02:09:49.953Z,14.85
2023-01-09T02:12:52.499Z,18.20
2023-01-09T02:16:15.153Z,15.00
2023-01-09T02:19:43.892Z,13.63
2023-01-09T02:23:14.431Z,17.63
2023-01-09T02:27:19.086Z,17.17
2023-01-09T02:30:37.416Z,15.07
2023-01-09T02:34:00.466Z,14.20
2023-01-09T02:37:22.064Z,14.30
2023-01-09T02:40:43.511Z,15.90
2023-01-09T02:43:45.884Z,15.60
2023-01-09T02:46:59.146Z,14.90
2023-01-09T02:50:05.212Z,15.60
2023-01-09T02:53:33.889Z,17.60
2023-01-09T02:57:00.942Z,15.10
2023-01-09T03:00:33.093Z,16.00
2023-01-09T03:03:49.080Z,16.23
2023-01-09T03:07:23.925Z,19.00
2023-01-09T03:10:43.172Z,16.50
2023-01-09T03:13:53.565Z,16.10
2023-01-09T03:16:59.630Z,17.90
2023-01-09T03:20:05.278Z,16.90
2023-01-09T03:23:08.344Z,16.67
2023-01-09T03:26:11.520Z,17.15
2023-01-09T03:29:13.968Z,17.45
2023-01-09T03:32:16.322Z,17.13
2023-01-09T03:35:18.784Z,17.27
2023-01-09T03:38:21.328Z,16.67
2023-01-09T03:41:24.080Z,16.55
2023-01-09T03:44:26.531Z,18.38
2023-01-09T03:47:28.992Z,15.35
2023-01-09T03:50:31.766Z,16.47
2023-01-09T03:53:34.336Z,18.93
2023-01-09T03:56:36.779Z,17.40
2023-01-09T03:59:39.919Z,19.52
2023-01-09T04:02:43.468Z,18.77
2023-01-09T04:05:48.027Z,18.10
2023-01-09T04:08:50.644Z,19.37
2023-01-09T04:11:54.103Z,17.23
2023-01-09T04:14:56.584Z,15.70
2023-01-09T04:17:59.056Z,19.20
2023-01-09T04:21:01.580Z,19.93
2023-01-09T04:24:04.469Z,21.03
2023-01-09T04:27:06.914Z,20.65
2023-01-09T04:30:09.968Z,22.25
2023-01-09T04:33:12.410Z,20.88
2023-01-09T04:36:18.237Z,19.60
2023-01-09T04:39:21.545Z,18.57
2023-01-09T04:42:24.578Z,18.75
2023-01-09T04:45:27.176Z,18.52
2023-01-09T04:48:29.582Z,19.92
2023-01-09T04:51:32.464Z,18.87
2023-01-09T04:54:34.939Z,16.23
2023-01-09T04:57:37.825Z,22.50
2023-01-09T05:00:40.427Z,21.15
2023-01-09T05:03:42.905Z,19.83
2023-01-09T05:06:45.319Z,20.80
2023-01-09T05:09:48.016Z,18.17
2023-01-09T05:12:52.566Z,19.88
2023-01-09T05:15:55.009Z,19.20
2023-01-09T05:18:57.943Z,19.30
2023-01-09T05:22:00.389Z,20.60
2023-01-09T05:25:03.269Z,19.63
2023-01-09T05:28:05.737Z,18.10
2023-01-09T05:31:08.215Z,19.02
2023-01-09T05:34:10.578Z,18.90
2023-01-09T05:37:13.136Z,19.57
2023-01-09T05:40:15.820Z,17.33
2023-01-09T05:43:18.283Z,18.38
2023-01-09T05:46:20.953Z,18.60
2023-01-09T05:49:23.531Z,17.95
2023-01-09T05:52:26.145Z,18.97
2023-01-09T05:55:28.684Z,18.07
2023-01-09T05:58:31.128Z,19.80
2023-01-09T06:01:33.709Z,21.10
2023-01-09T06:04:36.331Z,19.88
2023-01-09T06:07:40.761Z,23.00
2023-01-09T06:10:46.008Z,20.07
2023-01-09T06:13:48.497Z,20.73
2023-01-09T06:16:50.949Z,21.20
2023-01-09T06:19:53.455Z,32.72
2023-01-09T06:22:55.981Z,22.10
2023-01-09T06:25:58.526Z,25.13
2023-01-09T06:29:01.814Z,23.00
2023-01-09T06:32:05.225Z,21.63
2023-01-09T06:35:08.117Z,24.70
2023-01-09T06:38:11.011Z,21.33
2023-01-09T06:41:14.008Z,21.97
2023-01-09T06:44:16.656Z,21.77
2023-01-09T06:47:19.432Z,22.30
2023-01-09T06:50:22.083Z,23.40
2023-01-09T06:53:24.844Z,20.20
2023-01-09T06:56:27.980Z,21.87
2023-01-09T06:59:31.321Z,21.52
2023-01-09T07:02:33.868Z,22.98
2023-01-09T07:05:42.957Z,25.40
2023-01-09T07:08:47.836Z,28.63
2023-01-09T07:11:50.931Z,24.33
2023-01-09T07:14:53.950Z,24.17
2023-01-09T07:17:57.237Z,24.33
2023-01-09T07:21:00.165Z,22.33
2023-01-09T07:24:02.624Z,27.17
2023-01-09T07:27:05.244Z,26.43
2023-01-09T07:30:08.961Z,24.45
2023-01-09T07:33:11.549Z,25.15
2023-01-09T07:36:14.456Z,20.48
2023-01-09T07:39:17.313Z,21.10
2023-01-09T07:42:19.946Z,19.07
2023-01-09T07:45:22.519Z,20.77
2023-01-09T07:48:25.505Z,20.35
2023-01-09T07:51:28.132Z,19.75
2023-01-09T07:54:31.204Z,18.23
2023-01-09T07:57:33.697Z,19.43
2023-01-09T08:00:36.389Z,16.40
2023-01-09T08:03:39.011Z,19.52
2023-01-09T08:06:41.433Z,15.63
2023-01-09T08:09:43.923Z,20.23
2023-01-09T08:12:47.722Z,17.77
2023-01-09T08:15:50.517Z,17.73
2023-01-09T08:18:53.093Z,20.75
2023-01-09T08:21:55.747Z,17.92
2023-01-09T08:24:58.338Z,20.43
2023-01-09T08:28:01.064Z,18.77
2023-01-09T08:31:03.625Z,17.88
2023-01-09T08:34:06.580Z,17.35
2023-01-09T08:37:09.200Z,15.65
2023-01-09T08:40:13.513Z,17.47
2023-01-09T08:43:34.537Z,17.97
2023-01-09T08:46:56.199Z,17.73
2023-01-09T08:49:59.020Z,18.55
2023-01-09T08:53:01.618Z,17.27
2023-01-09T08:56:04.283Z,18.30
2023-01-09T08:59:06.722Z,18.77
2023-01-09T09:02:10.206Z,21.08
2023-01-09T09:05:12.660Z,19.25
2023-01-09T09:08:17.452Z,17.58
2023-01-09T09:11:20.142Z,17.03
2023-01-09T09:14:41.459Z,20.53
2023-01-09T09:17:44.698Z,17.38
2023-01-09T09:20:47.226Z,17.52
2023-01-09T09:23:49.755Z,18.58
2023-01-09T09:26:52.156Z,16.63
2023-01-09T09:29:54.690Z,18.00
2023-01-09T09:32:57.401Z,17.48
2023-01-09T09:36:00.624Z,18.00
2023-01-09T09:39:03.265Z,20.25
2023-01-09T09:42:55.537Z,22.17
2023-01-09T09:46:18.677Z,20.60
2023-01-09T09:49:35.627Z,20.05
2023-01-09T09:52:53.664Z,17.70
2023-01-09T09:55:57.751Z,19.17
2023-01-09T09:59:05.192Z,19.63
2023-01-09T10:02:50.600Z,15.53
2023-01-09T10:05:54.446Z,19.15
2023-01-09T10:09:41.441Z,19.20
2023-01-09T10:12:53.828Z,21.00
2023-01-09T10:16:15.168Z,19.30
2023-01-09T10:19:20.944Z,21.00
2023-01-09T10:22:41.720Z,22.27
2023-01-09T10:26:00.825Z,21.25
2023-01-09T10:29:41.781Z,18.73
2023-01-09T10:33:03.815Z,20.57
2023-01-09T10:36:15.291Z,20.33
2023-01-09T10:39:35.316Z,27.08
2023-01-09T10:42:41.047Z,24.00
2023-01-09T10:45:54.599Z,26.17
2023-01-09T10:49:02.797Z,22.77
2023-01-09T10:52:18.467Z,21.63
2023-01-09T10:55:39.915Z,21.17
2023-01-09T10:58:42.365Z,23.67
2023-01-09T11:01:45.127Z,22.95
2023-01-09T11:04:47.922Z,24.80
2023-01-09T11:07:56.220Z,22.77
2023-01-09T11:11:01.006Z,25.15
2023-01-09T11:14:15.173Z,22.88
2023-01-09T11:17:21.040Z,22.98
2023-01-09T11:20:23.475Z,26.03
2023-01-09T11:23:33.553Z,25.57
2023-01-09T11:26:36.384Z,24.55
2023-01-09T11:29:41.617Z,24.30
2023-01-09T11:32:45.983Z,24.30
2023-01-09T11:36:01.938Z,28.10
2023-01-09T11:39:04.557Z,24.77
2023-01-09T11:42:18.977Z,27.17
2023-01-09T11:45:34.514Z,22.60
2023-01-09T11:48:54.974Z,23.48
2023-01-09T11:52:24.781Z,25.93
2023-01-09T11:55:32.057Z,26.83
2023-01-09T11:58:40.680Z,27.92
2023-01-09T12:02:13.972Z,27.77
2023-01-09T12:05:29.039Z,29.05
2023-01-09T12:08:37.811Z,29.23
2023-01-09T12:11:59.062Z,25.90
2023-01-09T12:15:29.471Z,28.73
2023-01-09T12:18:37.997Z,25.42
2023-01-09T12:21:58.184Z,25.17
2023-01-09T12:25:20.995Z,25.40
2023-01-09T12:28:38.587Z,25.00
2023-01-09T12:32:06.048Z,26.67
2023-01-09T12:35:26.903Z,27.13
2023-01-09T12:38:54.555Z,27.98
2023-01-09T12:42:00.068Z,26.20
2023-01-09T12:45:32.619Z,32.10
2023-01-09T12:48:57.832Z,28.92
2023-01-09T12:52:06.931Z,27.10
2023-01-09T12:55:15.648Z,27.60
2023-01-09T12:58:34.028Z,29.07
2023-01-09T13:01:45.228Z,26.20
2023-01-09T13:05:08.933Z,28.58
2023-01-09T13:08:20.445Z,26.88
2023-01-09T13:11:38.145Z,29.23
2023-01-09T13:14:56.460Z,28.67
2023-01-09T13:18:09.699Z,26.83
2023-01-09T13:21:13.640Z,26.25
2023-01-09T13:24:24.714Z,28.00
2023-01-09T13:27:34.515Z,27.25
2023-01-09T13:30:54.380Z,29.40
2023-01-09T13:33:59.212Z,27.43
2023-01-09T13:37:01.934Z,28.75
2023-01-09T13:40:26.517Z,29.08
2023-01-09T13:43:53.614Z,32.80
2023-01-09T13:46:59.921Z,32.37
2023-01-09T13:50:26.953Z,32.27
2023-01-09T13:53:31.794Z,34.40
2023-01-09T13:57:13.349Z,36.30
2023-01-09T14:00:36.934Z,31.08
2023-01-09T14:03:39.518Z,31.17
2023-01-09T14:06:44.920Z,34.10
2023-01-09T14:09:54.537Z,36.92
2023-01-09T14:12:58.267Z,32.00
2023-01-09T14:16:10.721Z,31.70
2023-01-09T14:19:26.741Z,36.30
2023-01-09T14:22:45.698Z,32.73
2023-01-09T14:26:16.003Z,31.88
2023-01-09T14:29:38.183Z,36.33
2023-01-09T14:32:44.851Z,38.58
2023-01-09T14:36:10.306Z,40.37
2023-01-09T14:39:14.053Z,38.63
2023-01-09T14:42:23.298Z,49.45
2023-01-09T14:45:27.233Z,42.58
2023-01-09T14:48:31.767Z,45.60
2023-01-09T14:51:38.733Z,42.80
2023-01-09T14:54:43.799Z,35.50
2023-01-09T14:57:46.323Z,31.95
2023-01-09T15:00:53.653Z,36.72
2023-01-09T15:04:01.417Z,34.53
2023-01-09T15:07:06.419Z,31.93
2023-01-09T15:10:17.383Z,35.00
2023-01-09T15:13:45.006Z,33.25
2023-01-09T15:16:47.540Z,33.70
2023-01-09T15:19:50.738Z,35.65
2023-01-09T15:22:54.863Z,36.73
2023-01-09T15:26:12.446Z,43.37
2023-01-09T15:29:20.569Z,41.55
2023-01-09T15:32:27.713Z,41.85
2023-01-09T15:35:30.505Z,44.55
2023-01-09T15:38:36.026Z,48.50
2023-01-09T15:41:57.210Z,47.63
2023-01-09T15:44:59.742Z,46.40
2023-01-09T15:48:26.636Z,45.47
2023-01-09T15:51:29.654Z,39.45
2023-01-09T15:54:33.538Z,40.50
2023-01-09T15:57:36.165Z,38.57
2023-01-09T16:00:41.970Z,40.05
2023-01-09T16:03:44.604Z,36.95
2023-01-09T16:06:50.480Z,37.38
2023-01-09T16:09:53.000Z,41.80
2023-01-09T16:12:55.834Z,41.90
2023-01-09T16:16:01.397Z,39.60
2023-01-09T16:19:04.194Z,42.28
2023-01-09T16:22:28.896Z,39.90
2023-01-09T16:25:34.200Z,38.50
2023-01-09T16:28:40.715Z,39.50
2023-01-09T16:31:43.310Z,38.58
2023-01-09T16:34:52.247Z,38.78
2023-01-09T16:37:54.867Z,37.97
2023-01-09T16:41:31.567Z,40.13
2023-01-09T16:44:34.345Z,39.20
2023-01-09T16:47:36.805Z,37.40
2023-01-09T16:50:40.302Z,42.22
2023-01-09T16:53:42.985Z,40.17
2023-01-09T16:56:50.751Z,39.33
2023-01-09T16:59:53.258Z,39.57
2023-01-09T17:02:57.342Z,39.95
2023-01-09T17:06:01.457Z,41.08
2023-01-09T17:09:04.017Z,39.63
2023-01-09T17:12:12.478Z,37.57
2023-01-09T17:15:15.253Z,43.03
2023-01-09T17:18:20.213Z,38.33
2023-01-09T17:21:28.924Z,44.47
2023-01-09T17:24:57.757Z,41.53
2023-01-09T17:28:19.462Z,39.90
2023-01-09T17:31:21.924Z,35.63
2023-01-09T17:34:24.400Z,37.58
2023-01-09T17:37:26.874Z,35.85
2023-01-09T17:40:29.651Z,40.80
2023-01-09T17:43:32.812Z,44.70
2023-01-09T17:46:37.659Z,43.00
2023-01-09T17:49:41.804Z,53.33
2023-01-09T17:52:44.761Z,54.38
2023-01-09T17:55:47.258Z,49.60
2023-01-09T17:58:50.100Z,45.90
2023-01-09T18:01:52.644Z,43.50
2023-01-09T18:04:55.162Z,44.75
2023-01-09T18:07:57.756Z,46.00
2023-01-09T18:11:05.091Z,39.72
2023-01-09T18:14:08.860Z,37.67
2023-01-09T18:17:13.115Z,33.43
2023-01-09T18:20:16.094Z,37.03
2023-01-09T18:23:18.825Z,37.55
2023-01-09T18:26:22.215Z,34.38
2023-01-09T18:29:24.973Z,36.47
2023-01-09T18:32:27.480Z,37.60
2023-01-09T18:35:30.955Z,36.25
2023-01-09T18:38:33.901Z,34.42
2023-01-09T18:41:36.606Z,32.60
2023-01-09T18:44:39.475Z,31.97
2023-01-09T18:47:41.989Z,28.43
2023-01-09T18:50:45.883Z,25.67
2023-01-09T18:53:48.974Z,26.15
2023-01-09T18:56:51.749Z,26.20
2023-01-09T18:59:54.465Z,27.20
2023-01-09T19:02:57.237Z,26.37
2023-01-09T19:06:01.279Z,27.45
2023-01-09T19:09:04.180Z,24.48
2023-01-09T19:12:06.950Z,26.92
2023-01-09T19:15:11.597Z,28.10
2023-01-09T19:18:15.769Z,23.80
2023-01-09T19:21:21.196Z,25.60
2023-01-09T19:24:24.604Z,25.83
2023-01-09T19:27:30.602Z,22.70
2023-01-09T19:30:34.803Z,19.77
2023-01-09T19:33:37.756Z,23.07
2023-01-09T19:36:40.656Z,21.92
2023-01-09T19:39:43.319Z,19.52
2023-01-09T19:42:45.791Z,22.30
2023-01-09T19:45:48.494Z,19.93
2023-01-09T19:48:51.903Z,20.20
2023-01-09T19:51:55.877Z,24.50
2023-01-09T19:54:58.607Z,25.45
2023-01-09T19:58:01.074Z,25.50
2023-01-09T20:01:11.849Z,27.10
2023-01-09T20:04:17.360Z,29.10
2023-01-09T20:07:21.325Z,29.42
2023-01-09T20:10:23.922Z,27.77
2023-01-09T20:13:26.409Z,24.73
2023-01-09T20:16:30.753Z,25.10
2023-01-09T20:19:33.758Z,28.77
2023-01-09T20:22:36.559Z,25.67
2023-01-09T20:25:39.542Z,27.35
2023-01-09T20:28:42.628Z,25.80
2023-01-09T20:31:45.396Z,22.37
2023-01-09T20:34:47.902Z,23.63
2023-01-09T20:37:51.723Z,25.95
2023-01-09T20:40:54.196Z,24.70
2023-01-09T20:44:24.027Z,24.25
2023-01-09T20:47:26.537Z,26.50
2023-01-09T20:50:29.033Z,22.77
2023-01-09T20:53:31.610Z,23.73
2023-01-09T20:56:36.223Z,22.38
2023-01-09T20:59:39.245Z,20.00
2023-01-09T21:02:41.753Z,20.37
2023-01-09T21:05:44.315Z,25.73
2023-01-09T21:08:47.328Z,21.60
2023-01-09T21:11:50.042Z,25.48
2023-01-09T21:14:52.695Z,22.17
2023-01-09T21:17:55.879Z,21.07
2023-01-09T21:21:02.782Z,21.83
2023-01-09T21:24:07.580Z,22.15
2023-01-09T21:27:10.148Z,21.48
2023-01-09T21:30:13.252Z,19.73
2023-01-09T21:33:22.515Z,20.40
2023-01-09T21:36:25.079Z,19.97
2023-01-09T21:39:27.665Z,19.42
2023-01-09T21:42:48.329Z,18.48
2023-01-09T21:46:19.586Z,19.52
2023-01-09T21:49:25.466Z,17.50
2023-01-09T21:52:28.429Z,18.80
2023-01-09T21:55:33.955Z,19.67
2023-01-09T21:58:36.396Z,19.38
2023-01-09T22:01:39.205Z,18.33
2023-01-09T22:04:43.079Z,18.60
2023-01-09T22:07:45.584Z,17.87
2023-01-09T22:10:55.388Z,17.73
2023-01-09T22:13:58.304Z,16.58
2023-01-09T22:17:00.736Z,19.60
2023-01-09T22:20:03.359Z,17.57
2023-01-09T22:23:05.970Z,17.33
2023-01-09T22:26:13.210Z,18.98
2023-01-09T22:29:16.378Z,17.45
2023-01-09T22:32:18.879Z,16.42
2023-01-09T22:35:21.373Z,16.23
2023-01-09T22:38:23.871Z,17.10
2023-01-09T22:41:29.621Z,16.20
2023-01-09T22:44:32.155Z,18.17
2023-01-09T22:47:34.552Z,13.25
2023-01-09T22:50:37.204Z,15.43
2023-01-09T22:53:39.612Z,14.67
2023-01-09T22:56:42.087Z,16.25
2023-01-09T22:59:45.263Z,16.58
2023-01-09T23:02:48.871Z,14.27
2023-01-09T23:06:05.757Z,14.63
2023-01-09T23:09:08.219Z,12.83
2023-01-09T23:12:10.695Z,12.70
2023-01-09T23:15:13.252Z,15.63
2023-01-09T23:18:15.674Z,15.25
2023-01-09T23:21:18.104Z,14.33
2023-01-09T23:24:20.802Z,13.10
2023-01-09T23:27:23.279Z,13.77
2023-01-09T23:30:25.734Z,12.52
2023-01-09T23:33:28.352Z,14.70
2023-01-09T23:36:30.918Z,14.93
2023-01-09T23:39:33.437Z,15.03
2023-01-09T23:42:54.421Z,18.05
2023-01-09T23:45:56.821Z,18.25
2023-01-09T23:48:59.373Z,18.45
2023-01-09T23:52:04.963Z,18.50
2023-01-09T23:55:08.088Z,16.03
2023-01-09T23:58:11.251Z,15.82
